Time;durP1;ratioP1;P1;durP2;ratioP2;P2;SDS_P1;SDS_P2;PMS_P1;PMS_P2;Temp;Humidity;BMP_temperature;BMP_pressure;BME280_temperature;BME280_humidity;BME280_pressure;Samples;Min_cycle;Max_cycle;Signal;HPM_P1;HPM_P2
2023/09/03 00:02:09;;;;;;;10.35;6.33;;;;;;;14.73;61.32;101150.77;1771747;80;21808;-54
2023/09/03 00:05:16;;;;;;;10.18;6.67;;;;;;;14.66;61.34;101153.39;1770222;80;21245;-54
2023/09/03 00:08:20;;;;;;;10.15;6.22;;;;;;;14.56;61.26;101155.52;1769823;80;21200;-53
2023/09/03 00:11:27;;;;;;;11.95;6.70;;;;;;;14.49;61.35;101158.66;1770506;80;21200;-54
2023/09/03 00:14:34;;;;;;;10.15;6.22;;;;;;;14.43;61.44;101166.81;1770973;80;21189;-53
2023/09/03 00:17:40;;;;;;;10.80;6.80;;;;;;;14.33;61.42;101157.41;1763789;80;21232;-53
2023/09/03 00:20:46;;;;;;;9.65;6.00;;;;;;;14.28;61.51;101157.59;1770407;80;21204;-54
2023/09/03 00:23:52;;;;;;;10.53;6.58;;;;;;;14.23;61.75;101155.86;1770441;80;21725;-54
2023/09/03 00:26:58;;;;;;;10.15;6.50;;;;;;;14.22;61.91;101162.42;1770417;80;21217;-54
2023/09/03 00:30:04;;;;;;;10.45;6.42;;;;;;;14.15;61.89;101160.91;1770273;80;21200;-54
2023/09/03 00:33:10;;;;;;;9.38;6.72;;;;;;;14.10;61.95;101163.84;1770538;80;21204;-54
2023/09/03 00:36:13;;;;;;;10.15;7.00;;;;;;;14.04;62.08;101164.06;1762932;80;21773;-54
2023/09/03 00:39:20;;;;;;;11.65;6.67;;;;;;;14.04;62.32;101157.69;1770837;80;21222;-54
2023/09/03 00:42:26;;;;;;;9.23;6.33;;;;;;;14.05;62.43;101156.67;1770870;80;21204;-54
2023/09/03 00:45:32;;;;;;;11.30;6.97;;;;;;;14.03;62.52;101154.60;1770469;80;21833;-54
2023/09/03 00:48:39;;;;;;;10.35;6.22;;;;;;;13.99;62.59;101147.72;1770905;80;21197;-55
2023/09/03 00:51:46;;;;;;;9.30;6.05;;;;;;;13.98;62.74;101150.14;1770613;80;21386;-54
2023/09/03 00:54:53;;;;;;;9.45;6.75;;;;;;;13.96;62.85;101148.95;1771183;80;21848;-54
2023/09/03 00:57:59;;;;;;;9.65;6.08;;;;;;;13.94;62.93;101151.02;1770289;81;21213;-55
2023/09/03 01:01:05;;;;;;;12.05;6.40;;;;;;;13.92;63.03;101139.86;1763474;81;21224;-54
2023/09/03 01:04:11;;;;;;;10.13;7.40;;;;;;;13.91;63.15;101143.62;1770566;80;21154;-54
2023/09/03 01:07:19;;;;;;;12.73;8.10;;;;;;;13.91;63.33;101140.88;1770470;80;21204;-54
2023/09/03 01:10:25;;;;;;;18.02;10.43;;;;;;;13.94;63.49;101155.14;1736572;82;21199;-53
2023/09/03 01:13:39;;;;;;;16.62;10.45;;;;;;;13.94;63.59;101148.27;1736563;82;21195;-53
2023/09/03 01:17:08;;;;;;;17.27;10.90;;;;;;;13.96;63.64;101157.72;1736684;82;21199;-53
2023/09/03 01:20:21;;;;;;;15.28;10.60;;;;;;;13.95;63.73;101153.27;1736583;82;21239;-54
2023/09/03 01:23:40;;;;;;;17.57;11.85;;;;;;;13.94;63.78;101155.14;1736565;82;21826;-54
2023/09/03 01:27:05;;;;;;;22.13;12.88;;;;;;;13.92;63.76;101161.34;1736514;82;21739;-53
2023/09/03 01:30:11;;;;;;;21.48;13.72;;;;;;;13.84;63.60;101150.90;1736568;81;21211;-53
2023/09/03 01:33:17;;;;;;;21.57;13.93;;;;;;;13.77;63.61;101146.63;1736662;82;21719;-54
2023/09/03 01:36:23;;;;;;;19.77;12.93;;;;;;;13.72;63.62;101145.42;1736466;82;21712;-54
2023/09/03 01:39:29;;;;;;;21.23;12.82;;;;;;;13.66;63.66;101139.26;1736539;81;21207;-54
2023/09/03 01:42:34;;;;;;;20.97;13.20;;;;;;;13.59;63.72;101135.52;1736480;82;21728;-53
2023/09/03 01:45:50;;;;;;;18.00;11.85;;;;;;;13.53;63.83;101132.44;1736564;82;21204;-53
2023/09/03 01:49:16;;;;;;;18.25;11.25;;;;;;;13.51;63.99;101137.75;1737012;82;21211;-53
2023/09/03 01:52:38;;;;;;;15.78;10.50;;;;;;;13.49;64.17;101131.59;1736558;82;21207;-54
2023/09/03 01:55:44;;;;;;;15.58;9.33;;;;;;;13.47;64.28;101143.28;1736606;81;21775;-53
2023/09/03 01:58:51;;;;;;;16.77;10.30;;;;;;;13.45;64.45;101142.08;1736738;82;21183;-53
2023/09/03 02:01:58;;;;;;;19.20;12.10;;;;;;;13.45;64.62;101135.20;1736657;82;21316;-54
2023/09/03 02:05:04;;;;;;;21.65;15.05;;;;;;;13.46;64.74;101134.16;1736566;81;21636;-54
2023/09/03 02:08:10;;;;;;;22.25;14.55;;;;;;;13.48;64.89;101139.48;1736563;82;21222;-55
2023/09/03 02:11:17;;;;;;;23.35;15.05;;;;;;;13.50;64.92;101136.92;1770556;80;21402;-53
2023/09/03 02:14:23;;;;;;;27.40;17.95;;;;;;;13.47;64.85;101134.52;1770671;80;21197;-53
2023/09/03 02:17:29;;;;;;;25.02;16.02;;;;;;;13.48;64.99;101148.61;1770461;79;21256;-53
2023/09/03 02:20:34;;;;;;;25.70;17.17;;;;;;;13.50;65.08;101145.67;1770167;81;21189;-53
2023/09/03 02:23:39;;;;;;;22.58;16.45;;;;;;;13.49;65.06;101142.59;1770478;80;21401;-53
2023/09/03 02:26:53;;;;;;;26.27;15.95;;;;;;;13.45;65.00;101141.22;1769857;80;21200;-53
2023/09/03 02:29:59;;;;;;;25.45;16.10;;;;;;;13.43;65.14;101147.40;1770824;80;21351;-54
2023/09/03 02:33:05;;;;;;;23.50;15.32;;;;;;;13.43;65.26;101145.52;1770859;80;21285;-53
2023/09/03 02:36:11;;;;;;;23.20;13.55;;;;;;;13.43;65.47;101147.40;1734890;81;21773;-54
2023/09/03 02:39:17;;;;;;;19.95;14.03;;;;;;;13.43;65.49;101146.89;1763450;80;21197;-54
2023/09/03 02:42:24;;;;;;;24.67;13.78;;;;;;;13.43;65.51;101148.77;1770101;80;21370;-54
2023/09/03 02:45:31;;;;;;;22.77;15.35;;;;;;;13.38;65.49;101142.97;1770371;80;21189;-54
2023/09/03 02:48:38;;;;;;;25.02;15.08;;;;;;;13.36;65.52;101146.41;1771105;80;21213;-54
2023/09/03 02:51:45;;;;;;;23.45;15.85;;;;;;;13.29;65.45;101143.48;1770792;80;21192;-54
2023/09/03 02:54:52;;;;;;;25.23;17.27;;;;;;;13.25;65.50;101144.89;1770339;79;21973;-54
2023/09/03 02:57:58;;;;;;;27.48;18.20;;;;;;;13.20;65.54;101146.42;1770434;80;21725;-54
2023/09/03 03:01:07;;;;;;;26.62;17.67;;;;;;;13.18;65.63;101146.60;1770910;80;21208;-55
2023/09/03 03:04:16;;;;;;;25.30;17.65;;;;;;;13.16;65.72;101146.45;1770335;80;21303;-54
2023/09/03 03:07:21;;;;;;;27.67;18.00;;;;;;;13.17;65.88;101146.78;1770257;80;21260;-54
2023/09/03 03:10:28;;;;;;;25.70;17.80;;;;;;;13.18;65.98;101147.98;1770813;79;21307;-54
2023/09/03 03:13:35;;;;;;;28.95;17.42;;;;;;;13.19;66.06;101149.68;1770481;80;21220;-53
2023/09/03 03:16:42;;;;;;;23.87;15.65;;;;;;;13.19;66.14;101151.05;1770335;80;21196;-54
2023/09/03 03:19:47;;;;;;;27.15;15.10;;;;;;;13.21;66.27;101142.13;1770523;81;21334;-54
2023/09/03 03:22:53;;;;;;;17.45;10.98;;;;;;;13.23;66.40;101153.81;1771279;80;21367;-53
2023/09/03 03:26:02;;;;;;;19.20;13.50;;;;;;;13.27;66.51;101150.21;1770362;81;21714;-54
2023/09/03 03:29:09;;;;;;;28.55;16.17;;;;;;;13.30;66.62;101163.07;1770286;81;21705;-53
2023/09/03 03:32:16;;;;;;;29.25;19.17;;;;;;;13.34;66.79;101155.34;1770659;81;21204;-53
2023/09/03 03:35:21;;;;;;;24.65;16.77;;;;;;;13.39;66.89;101159.80;1770813;80;21705;-53
2023/09/03 03:38:28;;;;;;;27.32;17.25;;;;;;;13.43;66.93;101164.77;1770219;80;21227;-53
2023/09/03 03:41:34;;;;;;;27.77;15.70;;;;;;;13.46;66.96;101168.55;1771011;80;21256;-53
2023/09/03 03:44:40;;;;;;;26.45;16.70;;;;;;;13.50;66.94;101166.30;1770790;80;21780;-53
2023/09/03 03:47:49;;;;;;;25.90;17.27;;;;;;;13.53;66.94;101166.83;1770382;81;21255;-54
2023/09/03 03:50:58;;;;;;;22.35;14.78;;;;;;;13.54;66.94;101160.27;1763669;81;21355;-54
2023/09/03 03:54:05;;;;;;;20.80;13.18;;;;;;;13.56;66.94;101159.26;1770804;81;21240;-53
2023/09/03 03:57:12;;;;;;;21.23;13.60;;;;;;;13.59;67.10;101164.41;1771061;79;21855;-54
2023/09/03 04:00:20;;;;;;;57.03;33.08;;;;;;;13.67;67.29;101167.97;1770824;81;21608;-54
2023/09/03 04:03:29;;;;;;;48.15;31.70;;;;;;;13.74;67.42;101164.00;1770795;81;21244;-54
2023/09/03 04:06:35;;;;;;;38.50;25.20;;;;;;;13.81;67.56;101160.89;1770806;81;21357;-53
2023/09/03 04:09:31;;;;;;;23.22;16.60;;;;;;;13.88;67.65;101166.01;1770531;81;21212;-53
2023/09/03 04:12:19;;;;;;;17.95;11.75;;;;;;;13.96;67.78;101165.47;1771581;79;21899;-53
2023/09/03 04:15:13;;;;;;;13.18;9.53;;;;;;;14.02;67.79;101164.75;1771146;80;21177;-55
2023/09/03 04:18:20;;;;;;;11.28;7.92;;;;;;;14.09;67.86;101164.89;1771064;79;21331;-55
2023/09/03 04:21:25;;;;;;;10.60;7.67;;;;;;;14.15;67.89;101155.40;1770300;80;21236;-55
2023/09/03 04:24:34;;;;;;;11.10;7.90;;;;;;;14.23;67.96;101153.11;1770796;80;21283;-55
2023/09/03 04:27:42;;;;;;;18.45;9.50;;;;;;;14.30;68.02;101158.28;1735265;82;21251;-54
2023/09/03 04:30:49;;;;;;;18.10;12.80;;;;;;;14.38;68.11;101159.61;1770857;80;21200;-54
2023/09/03 04:33:50;;;;;;;16.05;11.22;;;;;;;14.46;68.20;101157.64;1770837;80;21271;-53
2023/09/03 04:36:44;;;;;;;18.17;12.20;;;;;;;14.56;68.32;101154.14;1770571;81;21216;-55
2023/09/03 04:39:50;;;;;;;18.00;11.75;;;;;;;14.67;68.39;101154.23;1770639;79;21212;-54
2023/09/03 04:42:56;;;;;;;14.30;9.58;;;;;;;14.75;68.48;101153.66;1770409;80;21776;-54
2023/09/03 04:46:02;;;;;;;12.00;8.23;;;;;;;14.86;68.61;101153.73;1771001;80;21335;-53
2023/09/03 04:49:09;;;;;;;13.40;7.72;;;;;;;14.99;68.76;101153.47;1770958;80;21216;-54
2023/09/03 04:52:16;;;;;;;12.85;7.53;;;;;;;15.12;68.81;101156.10;1735299;82;21208;-53
2023/09/03 04:55:22;;;;;;;21.75;12.30;;;;;;;15.23;68.87;101155.14;1770845;80;21212;-53
2023/09/03 04:58:28;;;;;;;21.93;15.58;;;;;;;15.35;68.93;101150.87;1771028;80;21216;-53
2023/09/03 05:01:34;;;;;;;16.93;12.63;;;;;;;15.47;68.94;101149.92;1771073;79;21222;-53
2023/09/03 05:04:40;;;;;;;11.20;7.70;;;;;;;15.57;68.95;101149.14;1770972;80;21208;-54
2023/09/03 05:07:47;;;;;;;16.80;8.83;;;;;;;15.67;68.96;101142.79;1770704;80;21361;-53
2023/09/03 05:10:54;;;;;;;18.25;13.13;;;;;;;15.77;68.97;101144.75;1772101;80;21354;-53
2023/09/03 05:13:59;;;;;;;16.25;10.60;;;;;;;15.84;68.98;101145.16;1771936;80;21331;-53
2023/09/03 05:17:05;;;;;;;12.75;8.25;;;;;;;15.93;69.04;101142.66;1772428;80;21960;-55
2023/09/03 05:20:11;;;;;;;14.90;9.63;;;;;;;16.03;69.10;101140.98;1772445;80;21370;-53
2023/09/03 05:23:17;;;;;;;12.68;8.38;;;;;;;16.14;69.16;101133.03;1746110;80;21343;-54
2023/09/03 05:26:23;;;;;;;11.85;8.53;;;;;;;16.27;69.21;101135.97;1735450;82;21184;-55
2023/09/03 05:29:28;;;;;;;10.50;7.37;;;;;;;16.39;69.26;101139.92;1735275;82;21768;-54
2023/09/03 05:32:36;;;;;;;10.13;6.42;;;;;;;16.53;69.28;101138.73;1772345;80;21351;-54
2023/09/03 05:35:44;;;;;;;9.95;6.00;;;;;;;16.65;69.34;101146.30;1772562;80;21402;-53
2023/09/03 05:38:49;;;;;;;6.67;5.17;;;;;;;16.78;69.39;101147.84;1772438;79;21332;-54
2023/09/03 05:41:58;;;;;;;11.30;6.30;;;;;;;16.93;69.41;101146.39;1735949;82;21223;-54
2023/09/03 05:45:04;;;;;;;7.25;5.67;;;;;;;17.09;69.47;101148.88;1772603;80;21940;-54
2023/09/03 05:48:12;;;;;;;9.63;5.67;;;;;;;17.26;69.47;101146.15;1735447;82;21720;-54
2023/09/03 05:51:20;;;;;;;7.12;5.45;;;;;;;17.41;69.49;101146.92;1773695;79;21347;-54
2023/09/03 05:54:27;;;;;;;10.98;6.55;;;;;;;17.56;69.46;101149.94;1772482;80;21390;-54
2023/09/03 05:57:33;;;;;;;8.63;6.25;;;;;;;17.73;69.47;101149.07;1772464;80;21844;-54
2023/09/03 06:00:45;;;;;;;8.48;5.78;;;;;;;17.89;69.43;101145.98;1772395;80;21343;-54
2023/09/03 06:03:53;;;;;;;7.45;5.45;;;;;;;18.04;69.40;101145.33;1698577;82;21425;-54
2023/09/03 06:06:58;;;;;;;13.35;5.85;;;;;;;18.18;69.36;101141.55;1772560;81;21840;-54
2023/09/03 06:10:06;;;;;;;11.75;7.50;;;;;;;18.31;69.34;101145.77;1764849;79;21343;-53
2023/09/03 06:13:13;;;;;;;7.40;4.95;;;;;;;18.46;69.32;101147.87;1735542;81;21721;-54
2023/09/03 06:16:19;;;;;;;7.28;4.92;;;;;;;18.60;69.29;101137.13;1772820;80;21386;-54
2023/09/03 06:19:25;;;;;;;10.60;4.60;;;;;;;18.71;69.22;101139.84;1735844;82;21409;-54
2023/09/03 06:22:32;;;;;;;5.65;4.30;;;;;;;18.82;69.17;101135.06;1772793;79;21351;-53
2023/09/03 06:25:40;;;;;;;8.25;4.72;;;;;;;18.94;69.10;101131.45;1743001;82;21350;-54
2023/09/03 06:28:46;;;;;;;8.73;4.92;;;;;;;19.04;69.05;101134.64;1772894;80;21426;-55
2023/09/03 06:31:52;;;;;;;7.10;4.90;;;;;;;19.15;69.00;101134.00;1742082;82;21346;-55
2023/09/03 06:34:58;;;;;;;6.20;4.37;;;;;;;19.25;68.90;101130.80;1772384;80;21858;-55
2023/09/03 06:38:06;;;;;;;7.62;3.90;;;;;;;19.36;68.83;101132.95;1764156;81;21951;-54
2023/09/03 06:41:14;;;;;;;6.17;4.10;;;;;;;19.47;68.77;101127.31;1735505;82;21401;-53
2023/09/03 06:44:23;;;;;;;6.50;4.12;;;;;;;19.60;68.66;101125.35;1742557;82;21357;-54
2023/09/03 06:47:29;;;;;;;6.60;3.65;;;;;;;19.71;68.58;101125.25;1772387;80;21358;-53
2023/09/03 06:50:36;;;;;;;5.97;3.37;;;;;;;19.83;68.45;101133.22;1735598;82;21298;-54
2023/09/03 06:53:42;;;;;;;4.35;3.10;;;;;;;19.91;68.32;101128.29;1742663;82;21349;-54
2023/09/03 06:56:48;;;;;;;8.13;3.75;;;;;;;20.04;68.20;101119.88;1772926;79;21225;-54
2023/09/03 06:59:55;;;;;;;4.78;3.05;;;;;;;20.16;68.08;101119.56;1772578;79;21856;-54
2023/09/03 07:03:02;;;;;;;3.77;2.70;;;;;;;20.26;67.93;101118.57;1800099;79;21347;-54
2023/09/03 07:06:08;;;;;;;6.03;2.90;;;;;;;20.35;67.74;101116.38;1794254;79;21372;-52
2023/09/03 07:09:15;;;;;;;4.78;2.92;;;;;;;20.43;67.49;101109.16;1803552;79;21358;-53
2023/09/03 07:12:24;;;;;;;4.35;3.08;;;;;;;20.48;67.25;101108.83;1782817;79;21329;-53
2023/09/03 07:15:29;;;;;;;4.35;3.10;;;;;;;20.57;67.12;101112.18;1735368;81;21216;-53
2023/09/03 07:18:36;;;;;;;6.83;3.52;;;;;;;20.64;66.96;101116.62;1769990;80;21394;-53
2023/09/03 07:21:41;;;;;;;3.75;2.80;;;;;;;20.71;66.78;101108.23;1733870;82;21746;-54
2023/09/03 07:24:46;;;;;;;4.65;3.05;;;;;;;20.79;66.68;101113.00;1770143;79;21364;-54
2023/09/03 07:27:52;;;;;;;6.08;4.20;;;;;;;20.88;66.51;101109.95;1786787;79;21410;-54
2023/09/03 07:30:59;;;;;;;8.78;4.70;;;;;;;20.95;66.31;101102.42;1776308;79;21351;-53
2023/09/03 07:34:06;;;;;;;5.35;3.47;;;;;;;21.02;66.07;101105.48;1708778;82;21406;-54
2023/09/03 07:37:14;;;;;;;5.78;3.95;;;;;;;21.07;65.87;101095.92;1792430;79;21339;-53
2023/09/03 07:40:21;;;;;;;6.05;3.55;;;;;;;21.15;65.71;101098.95;1735078;82;21200;-53
2023/09/03 07:43:29;;;;;;;4.78;2.65;;;;;;;21.24;65.51;101104.02;1769999;80;21202;-54
2023/09/03 07:46:38;;;;;;;4.10;2.85;;;;;;;21.29;65.28;101097.22;1735920;81;21731;-54
2023/09/03 07:49:45;;;;;;;5.33;3.40;;;;;;;21.38;65.10;101100.55;1769872;80;21723;-54
2023/09/03 07:52:52;;;;;;;5.45;3.62;;;;;;;21.44;64.91;101093.53;1771388;79;21714;-54
2023/09/03 07:55:57;;;;;;;3.75;2.72;;;;;;;21.52;64.67;101091.84;1772514;79;21348;-54
2023/09/03 07:59:03;;;;;;;5.85;3.37;;;;;;;21.58;64.39;101091.48;1785644;79;21197;-54
2023/09/03 08:02:09;;;;;;;4.10;2.25;;;;;;;21.66;64.19;101093.41;1770038;79;21324;-54
2023/09/03 08:05:17;;;;;;;5.67;2.65;;;;;;;21.73;63.97;101094.20;1792438;79;21694;-52
2023/09/03 08:08:23;;;;;;;5.08;2.60;;;;;;;21.80;63.71;101089.98;1789191;79;21300;-53
2023/09/03 08:11:30;;;;;;;3.77;2.02;;;;;;;21.88;63.55;101087.72;1779397;79;21204;-54
2023/09/03 08:14:38;;;;;;;5.03;2.40;;;;;;;21.95;63.17;101082.92;1769535;79;21598;-53
2023/09/03 08:17:43;;;;;;;3.65;2.25;;;;;;;22.00;62.89;101087.80;1768839;80;21224;-54
2023/09/03 08:20:49;;;;;;;3.40;2.55;;;;;;;22.04;62.60;101084.87;1769206;80;21232;-54
2023/09/03 08:23:55;;;;;;;6.35;2.33;;;;;;;22.07;62.36;101076.03;1769332;79;21739;-54
2023/09/03 08:27:02;;;;;;;7.20;2.70;;;;;;;22.11;62.12;101076.72;1769631;80;21169;-54
2023/09/03 08:30:10;;;;;;;5.80;2.70;;;;;;;22.17;61.83;101074.38;1769601;80;21200;-54
2023/09/03 08:33:16;;;;;;;3.62;2.33;;;;;;;22.20;61.57;101078.09;1769212;81;21181;-54
2023/09/03 08:36:24;;;;;;;3.08;2.15;;;;;;;22.25;61.32;101079.34;1770264;80;21193;-55
2023/09/03 08:39:30;;;;;;;4.03;2.27;;;;;;;22.32;61.06;101084.27;1770504;80;21252;-55
2023/09/03 08:42:37;;;;;;;3.92;2.17;;;;;;;22.41;60.86;101071.69;1770063;81;21532;-55
2023/09/03 08:45:58;;;;;;;7.95;2.37;;;;;;;22.48;60.56;101069.67;1770556;81;21332;-54
2023/09/03 08:49:06;;;;;;;4.53;2.30;;;;;;;22.53;60.25;101072.64;1770522;80;21247;-53
2023/09/03 08:52:15;;;;;;;5.28;2.60;;;;;;;22.58;59.94;101062.45;1771567;80;21191;-54
2023/09/03 08:55:22;;;;;;;4.83;2.40;;;;;;;22.62;59.63;101067.02;1801030;78;21390;-54
2023/09/03 08:58:28;;;;;;;4.42;2.70;;;;;;;22.69;59.44;101060.23;1801477;79;21833;-54
2023/09/03 09:01:37;;;;;;;3.80;2.22;;;;;;;22.76;59.18;101065.19;1801098;78;21336;-53
2023/09/03 09:04:42;;;;;;;5.45;3.12;;;;;;;22.81;58.80;101058.88;1779365;80;21914;-54
2023/09/03 09:07:49;;;;;;;5.33;2.60;;;;;;;22.81;58.44;101054.69;1798393;79;21235;-55
2023/09/03 09:10:56;;;;;;;3.60;2.37;;;;;;;22.85;58.22;101053.14;1798321;79;21188;-55
2023/09/03 09:14:02;;;;;;;4.60;2.52;;;;;;;22.90;57.99;101055.50;1798322;79;21149;-55
2023/09/03 09:17:07;;;;;;;3.30;2.08;;;;;;;22.95;57.67;101057.03;1795888;79;21737;-54
2023/09/03 09:20:15;;;;;;;3.30;1.98;;;;;;;22.98;57.45;101049.57;1798517;79;21911;-54
2023/09/03 09:23:28;;;;;;;3.75;1.82;;;;;;;23.08;57.20;101050.37;1798749;79;21326;-54
2023/09/03 09:26:39;;;;;;;3.80;2.37;;;;;;;23.13;56.90;101040.19;1800267;79;21327;-55
2023/09/03 09:29:46;;;;;;;5.58;2.35;;;;;;;23.22;56.70;101040.13;1798255;79;21346;-55
2023/09/03 09:32:55;;;;;;;3.70;2.60;;;;;;;23.32;56.49;101032.56;1797695;79;21830;-54
2023/09/03 09:36:02;;;;;;;5.10;2.15;;;;;;;23.37;56.17;101030.72;1797389;80;21365;-53
2023/09/03 09:39:15;;;;;;;3.92;1.90;;;;;;;23.41;55.86;101029.70;1797761;80;21341;-54
2023/09/03 09:42:22;;;;;;;5.08;1.90;;;;;;;23.46;55.59;101031.22;1771656;79;21188;-53
2023/09/03 09:45:29;;;;;;;5.42;2.17;;;;;;;23.51;55.32;101025.75;1769000;81;21463;-54
2023/09/03 09:48:35;;;;;;;4.08;2.15;;;;;;;23.56;55.05;101032.29;1769273;81;21248;-54
2023/09/03 09:51:41;;;;;;;4.70;2.40;;;;;;;23.63;54.81;101030.77;1774947;79;21232;-53
2023/09/03 09:54:49;;;;;;;4.25;1.90;;;;;;;23.69;54.63;101022.78;1734473;81;21216;-54
2023/09/03 09:57:58;;;;;;;3.83;2.50;;;;;;;23.76;54.38;101027.71;1770276;80;21372;-54
2023/09/03 10:01:03;;;;;;;12.33;3.25;;;;;;;23.84;54.18;101024.53;1770145;79;21834;-54
2023/09/03 10:04:10;;;;;;;4.62;2.83;;;;;;;23.92;53.89;101027.48;1769777;79;21743;-54
2023/09/03 10:07:16;;;;;;;2.85;1.80;;;;;;;23.94;53.54;101021.96;1769942;79;21198;-54
2023/09/03 10:10:23;;;;;;;5.15;2.30;;;;;;;23.99;53.28;101025.45;1771184;80;21183;-55
2023/09/03 10:13:31;;;;;;;5.28;2.67;;;;;;;24.03;53.04;101015.44;1770346;80;21187;-54
2023/09/03 10:16:37;;;;;;;4.00;2.30;;;;;;;24.07;52.79;101020.28;1770151;79;21692;-55
2023/09/03 10:19:57;;;;;;;3.85;2.58;;;;;;;24.08;52.47;101026.20;1771041;78;21241;-54
2023/09/03 10:23:05;;;;;;;4.80;2.20;;;;;;;24.11;52.28;101011.72;1769764;79;21206;-55
2023/09/03 10:26:11;;;;;;;2.55;2.10;;;;;;;24.19;52.10;101014.12;1770285;79;21724;-54
2023/09/03 10:29:19;;;;;;;2.50;1.85;;;;;;;24.22;51.79;101008.02;1770328;80;21777;-54
2023/09/03 10:32:26;;;;;;;3.58;2.27;;;;;;;24.26;51.49;101005.58;1770292;79;21339;-54
2023/09/03 10:35:31;;;;;;;2.75;2.10;;;;;;;24.34;51.31;101006.58;1769602;81;21771;-55
2023/09/03 10:38:41;;;;;;;3.67;2.10;;;;;;;24.41;51.12;101009.52;1769868;81;21202;-55
2023/09/03 10:41:47;;;;;;;3.27;2.30;;;;;;;24.48;50.90;100997.59;1770168;79;21385;-55
2023/09/03 10:44:59;;;;;;;2.45;1.70;;;;;;;24.57;50.66;101002.23;1770535;80;21250;-55
2023/09/03 10:48:10;;;;;;;3.83;1.80;;;;;;;24.69;50.45;101008.64;1770393;79;21392;-56
2023/09/03 10:51:16;;;;;;;2.70;1.98;;;;;;;24.74;50.12;101002.59;1770902;80;21348;-54
2023/09/03 10:54:28;;;;;;;2.42;1.90;;;;;;;24.85;49.94;101004.46;1776725;79;21382;-54
2023/09/03 10:57:38;;;;;;;4.03;2.15;;;;;;;24.96;49.69;101003.53;1777600;79;21833;-54
2023/09/03 11:00:44;;;;;;;8.38;3.40;;;;;;;25.10;49.45;101006.85;1783193;79;21317;-54
2023/09/03 11:03:54;;;;;;;5.10;2.95;;;;;;;25.23;49.30;100998.64;1777100;79;21360;-54
2023/09/03 11:07:23;;;;;;;4.50;2.67;;;;;;;25.44;49.22;101000.66;1773841;79;21221;-55
2023/09/03 11:10:35;;;;;;;2.77;2.00;;;;;;;25.56;48.76;101000.83;1788289;79;21309;-53
2023/09/03 11:13:43;;;;;;;2.67;1.90;;;;;;;25.66;48.49;100984.70;1786527;79;21344;-55
2023/09/03 11:16:49;;;;;;;4.10;2.08;;;;;;;25.81;48.39;100980.70;1787756;79;21327;-54
2023/09/03 11:19:57;;;;;;;3.60;2.02;;;;;;;25.99;48.20;100985.42;1779460;79;21365;-54
2023/09/03 11:23:03;;;;;;;4.67;2.10;;;;;;;26.13;47.95;100992.36;1786703;79;21420;-53
2023/09/03 11:26:10;;;;;;;2.47;2.05;;;;;;;26.21;47.58;100984.05;1798366;79;21433;-54
2023/09/03 11:29:30;;;;;;;3.70;2.25;;;;;;;26.33;47.36;100985.59;1770327;81;21191;-54
2023/09/03 11:32:46;;;;;;;5.30;2.15;;;;;;;26.42;47.03;100991.55;1770234;79;21182;-54
2023/09/03 11:35:56;;;;;;;7.85;4.00;;;;;;;26.57;46.70;100988.91;1798732;79;21892;-53
2023/09/03 11:39:04;;;;;;;7.50;2.50;;;;;;;26.63;46.27;100985.03;1769926;80;21263;-54
2023/09/03 11:42:13;;;;;;;4.70;1.92;;;;;;;26.69;46.08;100983.17;1769733;80;21209;-54
2023/09/03 11:45:19;;;;;;;7.87;5.30;;;;;;;26.75;45.80;100981.52;1742576;80;21204;-54
2023/09/03 11:48:38;;;;;;;11.63;6.58;;;;;;;26.78;45.43;100975.39;1769799;79;21263;-53
2023/09/03 11:51:44;;;;;;;7.95;4.70;;;;;;;26.67;45.01;100979.19;1769779;79;21223;-54
2023/09/03 11:54:50;;;;;;;4.17;2.37;;;;;;;26.59;44.87;100967.58;1770873;80;21682;-53
2023/09/03 11:57:56;;;;;;;2.98;2.10;;;;;;;26.62;44.72;100978.28;1769793;79;21232;-55
2023/09/03 12:01:02;;;;;;;4.20;2.40;;;;;;;26.66;44.55;100970.48;1771570;79;21196;-53
2023/09/03 12:04:09;;;;;;;4.17;2.20;;;;;;;26.66;44.32;100959.25;1772307;79;21288;-54
2023/09/03 12:07:23;;;;;;;2.95;1.82;;;;;;;26.70;44.26;100958.16;1781944;79;21753;-58
2023/09/03 12:10:29;;;;;;;3.10;2.00;;;;;;;26.75;44.14;100954.82;1781678;79;21907;-55
2023/09/03 12:13:41;;;;;;;4.12;2.08;;;;;;;26.70;43.74;100955.35;1801004;78;21367;-54
2023/09/03 12:16:55;;;;;;;2.80;1.92;;;;;;;26.56;43.50;100954.07;1796549;79;21344;-54
2023/09/03 12:20:00;;;;;;;5.15;2.30;;;;;;;26.58;43.58;100949.87;1800589;79;21662;-55
2023/09/03 12:23:20;;;;;;;3.70;1.92;;;;;;;26.56;43.27;100954.07;1803194;79;21410;-54
2023/09/03 12:26:25;;;;;;;3.10;1.70;;;;;;;26.35;43.05;100942.63;1771912;80;21296;-54
2023/09/03 12:29:34;;;;;;;5.70;2.58;;;;;;;26.29;42.95;100941.45;1772138;81;21369;-54
2023/09/03 12:32:40;;;;;;;3.17;2.22;;;;;;;26.28;42.95;100940.61;1780410;79;21343;-53
2023/09/03 12:35:46;;;;;;;4.95;2.15;;;;;;;26.31;42.88;100933.59;1804446;79;21378;-54
2023/09/03 12:39:06;;;;;;;3.85;2.00;;;;;;;26.31;42.71;100939.20;1777227;79;21798;-53
2023/09/03 12:42:14;;;;;;;3.05;1.80;;;;;;;26.25;42.49;100938.33;1772058;79;21324;-54
2023/09/03 12:45:19;;;;;;;3.33;2.20;;;;;;;26.18;42.26;100930.66;1784722;80;21950;-53
2023/09/03 12:48:29;;;;;;;3.35;2.20;;;;;;;26.08;42.11;100922.16;1785347;79;21742;-54
2023/09/03 12:51:41;;;;;;;3.10;2.40;;;;;;;26.03;42.03;100918.43;1785820;79;21190;-54
2023/09/03 12:54:46;;;;;;;3.60;1.80;;;;;;;25.97;41.96;100923.09;1788948;79;21853;-53
2023/09/03 12:57:51;;;;;;;3.77;2.00;;;;;;;25.94;41.84;100909.59;1792911;79;21710;-53
2023/09/03 13:00:59;;;;;;;3.50;2.08;;;;;;;25.90;41.79;100904.77;1794771;79;21198;-54
2023/09/03 13:04:04;;;;;;;3.55;2.30;;;;;;;25.88;41.71;100916.80;1765102;79;21271;-54
2023/09/03 13:07:09;;;;;;;2.80;2.25;;;;;;;25.84;41.61;100915.66;1771042;79;21746;-54
2023/09/03 13:10:16;;;;;;;5.72;2.17;;;;;;;25.81;41.60;100904.41;1734343;82;21273;-53
2023/09/03 13:13:21;;;;;;;3.87;2.17;;;;;;;25.82;41.57;100900.48;1784229;79;21355;-56
2023/09/03 13:16:30;;;;;;;5.25;2.27;;;;;;;25.79;41.48;100911.37;1746953;81;21215;-55
2023/09/03 13:19:38;;;;;;;4.42;2.52;;;;;;;25.75;41.40;100909.64;1783770;79;21865;-56
2023/09/03 13:22:46;;;;;;;6.33;2.37;;;;;;;25.74;41.32;100900.09;1770698;79;21379;-54
2023/09/03 13:25:52;;;;;;;2.90;2.17;;;;;;;25.75;41.32;100902.64;1763586;80;21973;-54
2023/09/03 13:28:57;;;;;;;2.90;2.15;;;;;;;25.76;41.23;100909.10;1763176;80;21197;-54
2023/09/03 13:32:04;;;;;;;3.72;2.30;;;;;;;25.74;41.17;100905.16;1769912;79;21268;-54
2023/09/03 13:35:12;;;;;;;6.42;2.22;;;;;;;25.73;41.16;100892.80;1770634;79;21683;-54
2023/09/03 13:38:16;;;;;;;6.62;2.72;;;;;;;25.73;41.12;100887.19;1771075;79;21331;-54
2023/09/03 13:41:23;;;;;;;5.28;2.62;;;;;;;25.73;41.07;100891.39;1769356;81;21185;-53
2023/09/03 13:44:29;;;;;;;2.75;2.20;;;;;;;25.68;41.00;100890.79;1769535;81;21193;-53
2023/09/03 13:47:35;;;;;;;9.75;2.55;;;;;;;25.67;40.96;100881.23;1789904;78;21242;-53
2023/09/03 13:50:39;;;;;;;6.37;3.00;;;;;;;25.67;40.96;100884.86;1801025;79;21825;-55
2023/09/03 13:53:47;;;;;;;5.60;3.00;;;;;;;25.66;40.89;100881.78;1800478;79;21359;-54
2023/09/03 13:56:53;;;;;;;8.95;3.58;;;;;;;25.62;40.88;100878.36;1799770;79;21877;-55
2023/09/03 14:00:01;;;;;;;8.65;3.33;;;;;;;25.62;40.88;100886.23;1774770;78;21209;-55
2023/09/03 14:03:08;;;;;;;6.33;2.47;;;;;;;25.65;40.88;100893.27;1776260;78;21734;-53
2023/09/03 14:06:16;;;;;;;4.50;2.20;;;;;;;25.62;40.84;100893.25;1801214;79;21328;-54
2023/09/03 14:09:22;;;;;;;5.80;2.30;;;;;;;25.63;40.82;100891.27;1769693;80;21730;-53
2023/09/03 14:12:29;;;;;;;2.83;1.90;;;;;;;25.62;40.82;100884.83;1772103;79;21189;-53
2023/09/03 14:15:35;;;;;;;2.98;2.12;;;;;;;25.65;40.73;100880.64;1769276;79;21196;-54
2023/09/03 14:18:42;;;;;;;5.85;2.50;;;;;;;25.68;40.64;100874.50;1769300;80;21196;-54
2023/09/03 14:21:49;;;;;;;3.98;2.45;;;;;;;25.65;40.53;100877.84;1768803;80;21777;-55
2023/09/03 14:24:55;;;;;;;5.22;2.25;;;;;;;25.65;40.58;100882.05;1768155;81;21212;-54